sensor_id;sensor_type;location;lat;lon;timestamp;P1;durP1;ratioP1;P2;durP2;ratioP2
68995;SDS011;56056;48.990;12.146;2023-03-14T00:01:38;674.78;;;638.42;;
68995;SDS011;56056;48.990;12.146;2023-03-14T00:04:04;682.25;;;645.22;;
68995;SDS011;56056;48.990;12.146;2023-03-14T00:06:31;633.53;;;601.95;;
68995;SDS011;56056;48.990;12.146;2023-03-14T00:08:57;657.33;;;623.72;;
68995;SDS011;56056;48.990;12.146;2023-03-14T00:11:22;644.97;;;611.45;;
68995;SDS011;56056;48.990;12.146;2023-03-14T00:13:48;639.92;;;607.28;;
68995;SDS011;56056;48.990;12.146;2023-03-14T00:16:14;615.03;;;584.75;;
68995;SDS011;56056;48.990;12.146;2023-03-14T00:18:40;653.95;;;618.50;;
68995;SDS011;56056;48.990;12.146;2023-03-14T00:21:06;663.25;;;627.15;;
68995;SDS011;56056;48.990;12.146;2023-03-14T00:23:34;705.28;;;667.30;;
68995;SDS011;56056;48.990;12.146;2023-03-14T00:26:01;655.58;;;620.53;;
68995;SDS011;56056;48.990;12.146;2023-03-14T00:28:28;701.78;;;662.35;;
68995;SDS011;56056;48.990;12.146;2023-03-14T00:30:54;711.15;;;670.35;;
68995;SDS011;56056;48.990;12.146;2023-03-14T00:33:19;664.42;;;629.35;;
68995;SDS011;56056;48.990;12.146;2023-03-14T00:35:51;676.05;;;639.67;;
68995;SDS011;56056;48.990;12.146;2023-03-14T00:38:17;655.10;;;619.75;;
68995;SDS011;56056;48.990;12.146;2023-03-14T00:40:44;641.28;;;608.63;;
68995;SDS011;56056;48.990;12.146;2023-03-14T00:43:10;681.80;;;646.08;;
68995;SDS011;56056;48.990;12.146;2023-03-14T00:45:36;721.67;;;681.20;;
68995;SDS011;56056;48.990;12.146;2023-03-14T00:48:01;689.20;;;652.28;;
68995;SDS011;56056;48.990;12.146;2023-03-14T00:50:27;732.72;;;692.53;;
68995;SDS011;56056;48.990;12.146;2023-03-14T00:52:53;702.92;;;664.17;;
68995;SDS011;56056;48.990;12.146;2023-03-14T00:55:18;679.42;;;642.25;;
68995;SDS011;56056;48.990;12.146;2023-03-14T00:57:46;699.03;;;661.80;;
68995;SDS011;56056;48.990;12.146;2023-03-14T01:00:12;684.58;;;646.95;;
68995;SDS011;56056;48.990;12.146;2023-03-14T01:02:39;707.38;;;669.20;;
68995;SDS011;56056;48.990;12.146;2023-03-14T01:05:05;703.35;;;664.72;;
68995;SDS011;56056;48.990;12.146;2023-03-14T01:07:31;671.38;;;636.20;;
68995;SDS011;56056;48.990;12.146;2023-03-14T01:09:56;726.00;;;688.03;;
68995;SDS011;56056;48.990;12.146;2023-03-14T01:12:22;729.55;;;690.50;;
68995;SDS011;56056;48.990;12.146;2023-03-14T01:14:49;650.63;;;615.35;;
68995;SDS011;56056;48.990;12.146;2023-03-14T01:17:15;725.95;;;685.67;;
68995;SDS011;56056;48.990;12.146;2023-03-14T01:19:40;688.83;;;652.08;;
68995;SDS011;56056;48.990;12.146;2023-03-14T01:22:06;755.47;;;714.22;;
68995;SDS011;56056;48.990;12.146;2023-03-14T01:24:31;670.70;;;635.03;;
68995;SDS011;56056;48.990;12.146;2023-03-14T01:26:57;665.95;;;629.90;;
68995;SDS011;56056;48.990;12.146;2023-03-14T01:29:23;690.38;;;653.13;;
68995;SDS011;56056;48.990;12.146;2023-03-14T01:31:50;691.78;;;655.65;;
68995;SDS011;56056;48.990;12.146;2023-03-14T01:34:15;698.67;;;661.67;;
68995;SDS011;56056;48.990;12.146;2023-03-14T01:36:41;689.78;;;653.72;;
68995;SDS011;56056;48.990;12.146;2023-03-14T01:39:06;686.63;;;650.80;;
68995;SDS011;56056;48.990;12.146;2023-03-14T01:41:33;700.60;;;664.05;;
68995;SDS011;56056;48.990;12.146;2023-03-14T01:43:59;670.13;;;635.15;;
68995;SDS011;56056;48.990;12.146;2023-03-14T01:46:28;651.85;;;616.60;;
68995;SDS011;56056;48.990;12.146;2023-03-14T01:49:05;668.72;;;634.28;;
68995;SDS011;56056;48.990;12.146;2023-03-14T01:51:41;740.30;;;694.83;;
68995;SDS011;56056;48.990;12.146;2023-03-14T01:54:11;596.25;;;566.67;;
68995;SDS011;56056;48.990;12.146;2023-03-14T01:56:40;641.17;;;606.47;;
68995;SDS011;56056;48.990;12.146;2023-03-14T01:59:08;695.47;;;657.65;;
68995;SDS011;56056;48.990;12.146;2023-03-14T02:01:33;698.72;;;661.72;;
68995;SDS011;56056;48.990;12.146;2023-03-14T02:04:00;701.50;;;666.08;;
68995;SDS011;56056;48.990;12.146;2023-03-14T02:06:32;680.35;;;645.20;;
68995;SDS011;56056;48.990;12.146;2023-03-14T02:09:02;747.60;;;705.58;;
68995;SDS011;56056;48.990;12.146;2023-03-14T02:11:29;656.40;;;622.40;;
68995;SDS011;56056;48.990;12.146;2023-03-14T02:13:55;639.28;;;607.67;;
68995;SDS011;56056;48.990;12.146;2023-03-14T02:16:21;799.20;;;748.88;;
68995;SDS011;56056;48.990;12.146;2023-03-14T02:18:47;692.90;;;656.92;;
68995;SDS011;56056;48.990;12.146;2023-03-14T02:21:14;639.05;;;605.90;;
68995;SDS011;56056;48.990;12.146;2023-03-14T02:23:47;699.50;;;662.20;;
68995;SDS011;56056;48.990;12.146;2023-03-14T02:26:17;662.13;;;626.22;;
68995;SDS011;56056;48.990;12.146;2023-03-14T02:28:47;776.67;;;728.60;;
68995;SDS011;56056;48.990;12.146;2023-03-14T02:31:13;707.05;;;666.60;;
68995;SDS011;56056;48.990;12.146;2023-03-14T02:33:40;828.83;;;762.30;;
68995;SDS011;56056;48.990;12.146;2023-03-14T02:36:07;621.95;;;589.15;;
68995;SDS011;56056;48.990;12.146;2023-03-14T02:38:35;706.10;;;668.95;;
68995;SDS011;56056;48.990;12.146;2023-03-14T02:41:03;769.28;;;717.63;;
68995;SDS011;56056;48.990;12.146;2023-03-14T02:43:29;624.85;;;586.85;;
68995;SDS011;56056;48.990;12.146;2023-03-14T02:45:56;598.20;;;568.22;;
68995;SDS011;56056;48.990;12.146;2023-03-14T02:48:23;605.30;;;569.88;;
68995;SDS011;56056;48.990;12.146;2023-03-14T02:50:51;604.50;;;573.13;;
68995;SDS011;56056;48.990;12.146;2023-03-14T02:53:20;688.78;;;638.50;;
68995;SDS011;56056;48.990;12.146;2023-03-14T02:55:49;668.60;;;609.35;;
68995;SDS011;56056;48.990;12.146;2023-03-14T02:58:15;593.90;;;556.47;;
68995;SDS011;56056;48.990;12.146;2023-03-14T03:00:40;645.28;;;609.97;;
68995;SDS011;56056;48.990;12.146;2023-03-14T03:03:07;658.15;;;569.67;;
68995;SDS011;56056;48.990;12.146;2023-03-14T03:05:33;562.65;;;536.72;;
68995;SDS011;56056;48.990;12.146;2023-03-14T03:07:59;535.28;;;510.88;;
68995;SDS011;56056;48.990;12.146;2023-03-14T03:10:25;605.97;;;575.90;;
68995;SDS011;56056;48.990;12.146;2023-03-14T03:12:51;560.35;;;534.28;;
68995;SDS011;56056;48.990;12.146;2023-03-14T03:15:16;618.67;;;589.50;;
68995;SDS011;56056;48.990;12.146;2023-03-14T03:17:42;568.42;;;541.75;;
68995;SDS011;56056;48.990;12.146;2023-03-14T03:20:10;621.15;;;590.78;;
68995;SDS011;56056;48.990;12.146;2023-03-14T03:22:35;577.45;;;549.25;;
68995;SDS011;56056;48.990;12.146;2023-03-14T03:25:01;593.53;;;565.67;;
68995;SDS011;56056;48.990;12.146;2023-03-14T03:27:29;576.00;;;549.65;;
68995;SDS011;56056;48.990;12.146;2023-03-14T03:29:54;606.42;;;576.50;;
68995;SDS011;56056;48.990;12.146;2023-03-14T03:32:20;636.47;;;604.05;;
68995;SDS011;56056;48.990;12.146;2023-03-14T03:34:46;585.42;;;556.33;;
68995;SDS011;56056;48.990;12.146;2023-03-14T03:37:13;630.40;;;600.08;;
68995;SDS011;56056;48.990;12.146;2023-03-14T03:39:38;608.05;;;578.45;;
68995;SDS011;56056;48.990;12.146;2023-03-14T03:42:04;650.17;;;618.28;;
68995;SDS011;56056;48.990;12.146;2023-03-14T03:44:30;660.88;;;627.00;;
68995;SDS011;56056;48.990;12.146;2023-03-14T03:46:55;651.75;;;618.35;;
68995;SDS011;56056;48.990;12.146;2023-03-14T03:49:21;594.08;;;563.75;;
68995;SDS011;56056;48.990;12.146;2023-03-14T03:51:47;674.05;;;639.38;;
68995;SDS011;56056;48.990;12.146;2023-03-14T03:54:14;669.65;;;636.35;;
68995;SDS011;56056;48.990;12.146;2023-03-14T03:56:39;671.55;;;638.55;;
68995;SDS011;56056;48.990;12.146;2023-03-14T03:59:05;628.97;;;597.10;;
68995;SDS011;56056;48.990;12.146;2023-03-14T04:01:30;646.97;;;614.72;;
68995;SDS011;56056;48.990;12.146;2023-03-14T04:03:56;649.13;;;616.42;;
68995;SDS011;56056;48.990;12.146;2023-03-14T04:06:22;606.35;;;575.80;;
68995;SDS011;56056;48.990;12.146;2023-03-14T04:08:48;619.90;;;590.00;;
68995;SDS011;56056;48.990;12.146;2023-03-14T04:11:15;607.55;;;577.55;;
68995;SDS011;56056;48.990;12.146;2023-03-14T04:13:40;676.60;;;642.88;;
68995;SDS011;56056;48.990;12.146;2023-03-14T04:16:09;681.40;;;646.08;;
68995;SDS011;56056;48.990;12.146;2023-03-14T04:18:37;662.45;;;629.83;;
68995;SDS011;56056;48.990;12.146;2023-03-14T04:21:02;651.90;;;619.10;;
68995;SDS011;56056;48.990;12.146;2023-03-14T04:23:28;611.95;;;582.63;;
68995;SDS011;56056;48.990;12.146;2023-03-14T04:25:54;637.45;;;607.03;;
68995;SDS011;56056;48.990;12.146;2023-03-14T04:28:21;593.70;;;564.22;;
68995;SDS011;56056;48.990;12.146;2023-03-14T04:30:47;643.22;;;610.25;;
68995;SDS011;56056;48.990;12.146;2023-03-14T04:33:13;700.33;;;664.17;;
68995;SDS011;56056;48.990;12.146;2023-03-14T04:35:42;746.20;;;703.55;;
68995;SDS011;56056;48.990;12.146;2023-03-14T04:38:07;630.67;;;598.17;;
68995;SDS011;56056;48.990;12.146;2023-03-14T04:40:33;608.47;;;578.53;;
68995;SDS011;56056;48.990;12.146;2023-03-14T04:43:01;657.63;;;624.47;;
68995;SDS011;56056;48.990;12.146;2023-03-14T04:45:28;643.20;;;610.17;;
68995;SDS011;56056;48.990;12.146;2023-03-14T04:47:53;635.67;;;605.33;;
68995;SDS011;56056;48.990;12.146;2023-03-14T04:50:19;618.90;;;589.38;;
68995;SDS011;56056;48.990;12.146;2023-03-14T04:52:45;633.38;;;602.33;;
68995;SDS011;56056;48.990;12.146;2023-03-14T04:55:10;653.50;;;621.97;;
68995;SDS011;56056;48.990;12.146;2023-03-14T04:57:36;648.30;;;617.00;;
68995;SDS011;56056;48.990;12.146;2023-03-14T05:00:02;631.22;;;600.28;;
68995;SDS011;56056;48.990;12.146;2023-03-14T05:02:32;588.40;;;560.95;;
68995;SDS011;56056;48.990;12.146;2023-03-14T05:04:58;617.72;;;588.28;;
68995;SDS011;56056;48.990;12.146;2023-03-14T05:07:24;618.03;;;587.55;;
68995;SDS011;56056;48.990;12.146;2023-03-14T05:09:49;594.00;;;566.05;;
68995;SDS011;56056;48.990;12.146;2023-03-14T05:12:15;637.88;;;607.00;;
68995;SDS011;56056;48.990;12.146;2023-03-14T05:14:41;623.38;;;593.25;;
68995;SDS011;56056;48.990;12.146;2023-03-14T05:17:06;637.17;;;605.13;;
68995;SDS011;56056;48.990;12.146;2023-03-14T05:19:34;635.05;;;604.08;;
68995;SDS011;56056;48.990;12.146;2023-03-14T05:22:00;604.83;;;576.13;;
68995;SDS011;56056;48.990;12.146;2023-03-14T05:24:26;600.20;;;571.03;;
68995;SDS011;56056;48.990;12.146;2023-03-14T05:26:51;648.92;;;618.35;;
68995;SDS011;56056;48.990;12.146;2023-03-14T05:29:17;631.83;;;601.00;;
68995;SDS011;56056;48.990;12.146;2023-03-14T05:31:42;688.20;;;653.88;;
68995;SDS011;56056;48.990;12.146;2023-03-14T05:34:08;616.47;;;586.85;;
68995;SDS011;56056;48.990;12.146;2023-03-14T05:36:35;603.88;;;574.45;;
68995;SDS011;56056;48.990;12.146;2023-03-14T05:39:01;728.60;;;687.92;;
68995;SDS011;56056;48.990;12.146;2023-03-14T05:41:26;638.30;;;607.38;;
68995;SDS011;56056;48.990;12.146;2023-03-14T05:43:52;642.22;;;602.03;;
68995;SDS011;56056;48.990;12.146;2023-03-14T05:46:18;625.47;;;595.35;;
68995;SDS011;56056;48.990;12.146;2023-03-14T05:48:43;630.33;;;597.75;;
68995;SDS011;56056;48.990;12.146;2023-03-14T05:51:09;619.53;;;589.70;;
68995;SDS011;56056;48.990;12.146;2023-03-14T05:53:36;641.55;;;610.33;;
68995;SDS011;56056;48.990;12.146;2023-03-14T05:56:01;610.33;;;579.90;;
68995;SDS011;56056;48.990;12.146;2023-03-14T05:58:27;595.83;;;566.60;;
68995;SDS011;56056;48.990;12.146;2023-03-14T06:00:53;621.90;;;591.60;;
68995;SDS011;56056;48.990;12.146;2023-03-14T06:03:18;648.28;;;613.83;;
68995;SDS011;56056;48.990;12.146;2023-03-14T06:05:44;628.95;;;596.63;;
68995;SDS011;56056;48.990;12.146;2023-03-14T06:08:10;613.40;;;583.50;;
68995;SDS011;56056;48.990;12.146;2023-03-14T06:10:37;631.20;;;601.50;;
68995;SDS011;56056;48.990;12.146;2023-03-14T06:13:02;586.63;;;558.03;;
68995;SDS011;56056;48.990;12.146;2023-03-14T06:15:28;673.00;;;640.75;;
68995;SDS011;56056;48.990;12.146;2023-03-14T06:17:54;646.47;;;613.05;;
68995;SDS011;56056;48.990;12.146;2023-03-14T06:20:19;677.85;;;644.65;;
68995;SDS011;56056;48.990;12.146;2023-03-14T06:22:45;638.20;;;606.05;;
68995;SDS011;56056;48.990;12.146;2023-03-14T06:25:11;713.47;;;677.88;;
68995;SDS011;56056;48.990;12.146;2023-03-14T06:27:38;671.65;;;637.65;;
68995;SDS011;56056;48.990;12.146;2023-03-14T06:30:04;609.47;;;578.70;;
68995;SDS011;56056;48.990;12.146;2023-03-14T06:32:30;656.05;;;624.22;;
68995;SDS011;56056;48.990;12.146;2023-03-14T06:34:56;644.80;;;610.67;;
68995;SDS011;56056;48.990;12.146;2023-03-14T06:37:25;628.88;;;597.30;;
68995;SDS011;56056;48.990;12.146;2023-03-14T06:39:51;690.15;;;655.45;;
68995;SDS011;56056;48.990;12.146;2023-03-14T06:42:17;587.95;;;560.83;;
68995;SDS011;56056;48.990;12.146;2023-03-14T06:44:44;570.97;;;541.28;;
68995;SDS011;56056;48.990;12.146;2023-03-14T06:47:09;657.38;;;624.03;;
68995;SDS011;56056;48.990;12.146;2023-03-14T06:49:35;674.03;;;640.40;;
68995;SDS011;56056;48.990;12.146;2023-03-14T06:52:01;643.45;;;610.22;;
68995;SDS011;56056;48.990;12.146;2023-03-14T06:54:26;686.47;;;648.97;;
68995;SDS011;56056;48.990;12.146;2023-03-14T06:56:52;634.90;;;603.00;;
68995;SDS011;56056;48.990;12.146;2023-03-14T06:59:17;673.90;;;640.50;;
68995;SDS011;56056;48.990;12.146;2023-03-14T07:01:44;681.60;;;647.28;;
68995;SDS011;56056;48.990;12.146;2023-03-14T07:04:10;752.97;;;714.70;;
68995;SDS011;56056;48.990;12.146;2023-03-14T07:06:36;701.40;;;664.80;;
68995;SDS011;56056;48.990;12.146;2023-03-14T07:09:02;689.63;;;653.13;;
68995;SDS011;56056;48.990;12.146;2023-03-14T07:11:28;705.47;;;667.97;;
68995;SDS011;56056;48.990;12.146;2023-03-14T07:13:53;718.45;;;680.17;;
68995;SDS011;56056;48.990;12.146;2023-03-14T07:16:19;557.92;;;530.65;;
68995;SDS011;56056;48.990;12.146;2023-03-14T07:18:46;671.75;;;636.17;;
68995;SDS011;56056;48.990;12.146;2023-03-14T07:21:12;580.28;;;552.67;;
68995;SDS011;56056;48.990;12.146;2023-03-14T07:23:38;728.60;;;689.83;;
68995;SDS011;56056;48.990;12.146;2023-03-14T07:26:03;642.70;;;608.53;;
68995;SDS011;56056;48.990;12.146;2023-03-14T07:28:29;702.67;;;665.83;;
68995;SDS011;56056;48.990;12.146;2023-03-14T07:30:55;700.63;;;663.83;;
68995;SDS011;56056;48.990;12.146;2023-03-14T07:33:21;723.28;;;685.05;;
68995;SDS011;56056;48.990;12.146;2023-03-14T07:35:48;752.03;;;710.70;;
68995;SDS011;56056;48.990;12.146;2023-03-14T07:38:14;759.65;;;716.67;;
68995;SDS011;56056;48.990;12.146;2023-03-14T07:40:40;703.17;;;662.95;;
68995;SDS011;56056;48.990;12.146;2023-03-14T07:43:06;721.22;;;682.42;;
68995;SDS011;56056;48.990;12.146;2023-03-14T07:45:32;775.42;;;731.03;;
68995;SDS011;56056;48.990;12.146;2023-03-14T07:47:57;734.38;;;694.80;;
68995;SDS011;56056;48.990;12.146;2023-03-14T07:50:23;729.13;;;687.22;;
68995;SDS011;56056;48.990;12.146;2023-03-14T07:52:50;502.55;;;474.70;;
68995;SDS011;56056;48.990;12.146;2023-03-14T07:55:16;713.88;;;673.33;;
68995;SDS011;56056;48.990;12.146;2023-03-14T07:57:42;728.42;;;687.20;;
68995;SDS011;56056;48.990;12.146;2023-03-14T08:00:08;750.88;;;707.10;;
68995;SDS011;56056;48.990;12.146;2023-03-14T08:02:35;715.22;;;676.17;;
68995;SDS011;56056;48.990;12.146;2023-03-14T08:05:01;731.22;;;689.63;;
68995;SDS011;56056;48.990;12.146;2023-03-14T08:07:27;765.95;;;720.63;;
68995;SDS011;56056;48.990;12.146;2023-03-14T08:09:54;833.83;;;782.65;;
68995;SDS011;56056;48.990;12.146;2023-03-14T08:12:19;763.30;;;717.95;;
68995;SDS011;56056;48.990;12.146;2023-03-14T08:14:45;863.20;;;812.20;;
68995;SDS011;56056;48.990;12.146;2023-03-14T08:17:11;911.03;;;851.33;;
68995;SDS011;56056;48.990;12.146;2023-03-14T08:19:36;774.42;;;728.85;;
68995;SDS011;56056;48.990;12.146;2023-03-14T08:22:02;885.92;;;833.58;;
68995;SDS011;56056;48.990;12.146;2023-03-14T08:24:28;823.60;;;773.88;;
68995;SDS011;56056;48.990;12.146;2023-03-14T08:26:55;880.80;;;826.08;;
68995;SDS011;56056;48.990;12.146;2023-03-14T08:29:21;774.30;;;726.72;;
68995;SDS011;56056;48.990;12.146;2023-03-14T08:31:46;800.03;;;752.78;;
68995;SDS011;56056;48.990;12.146;2023-03-14T08:34:13;864.00;;;810.05;;
68995;SDS011;56056;48.990;12.146;2023-03-14T08:36:39;859.85;;;802.85;;
68995;SDS011;56056;48.990;12.146;2023-03-14T08:39:05;808.03;;;758.67;;
68995;SDS011;56056;48.990;12.146;2023-03-14T08:41:32;889.00;;;833.28;;
68995;SDS011;56056;48.990;12.146;2023-03-14T08:43:59;921.92;;;864.13;;
68995;SDS011;56056;48.990;12.146;2023-03-14T08:46:25;830.10;;;779.13;;
68995;SDS011;56056;48.990;12.146;2023-03-14T08:48:50;912.22;;;857.78;;
68995;SDS011;56056;48.990;12.146;2023-03-14T08:51:16;836.83;;;785.05;;
68995;SDS011;56056;48.990;12.146;2023-03-14T08:53:42;817.20;;;765.88;;
68995;SDS011;56056;48.990;12.146;2023-03-14T08:56:09;865.58;;;810.20;;
68995;SDS011;56056;48.990;12.146;2023-03-14T08:58:35;887.92;;;832.25;;
68995;SDS011;56056;48.990;12.146;2023-03-14T09:01:04;934.83;;;871.55;;
68995;SDS011;56056;48.990;12.146;2023-03-14T09:03:30;936.92;;;877.05;;
68995;SDS011;56056;48.990;12.146;2023-03-14T09:05:56;877.45;;;820.20;;
68995;SDS011;56056;48.990;12.146;2023-03-14T09:08:26;910.38;;;851.13;;
68995;SDS011;56056;48.990;12.146;2023-03-14T09:10:51;904.85;;;841.13;;
68995;SDS011;56056;48.990;12.146;2023-03-14T09:13:17;1007.83;;;936.17;;
68995;SDS011;56056;48.990;12.146;2023-03-14T09:15:42;978.42;;;914.00;;
68995;SDS011;56056;48.990;12.146;2023-03-14T09:18:09;938.25;;;874.50;;
68995;SDS011;56056;48.990;12.146;2023-03-14T09:20:35;957.97;;;890.35;;
68995;SDS011;56056;48.990;12.146;2023-03-14T09:23:01;994.22;;;924.10;;
68995;SDS011;56056;48.990;12.146;2023-03-14T09:25:26;1092.13;;;998.03;;
68995;SDS011;56056;48.990;12.146;2023-03-14T09:27:52;961.00;;;891.42;;
68995;SDS011;56056;48.990;12.146;2023-03-14T09:30:18;979.33;;;906.80;;
68995;SDS011;56056;48.990;12.146;2023-03-14T09:32:43;1033.65;;;960.97;;
68995;SDS011;56056;48.990;12.146;2023-03-14T09:35:10;1093.47;;;999.90;;
68995;SDS011;56056;48.990;12.146;2023-03-14T09:37:36;1008.67;;;934.13;;
68995;SDS011;56056;48.990;12.146;2023-03-14T09:40:02;967.75;;;896.47;;
68995;SDS011;56056;48.990;12.146;2023-03-14T09:42:34;1028.03;;;956.33;;
68995;SDS011;56056;48.990;12.146;2023-03-14T09:45:03;1000.15;;;928.13;;
68995;SDS011;56056;48.990;12.146;2023-03-14T09:47:30;1064.95;;;985.70;;
68995;SDS011;56056;48.990;12.146;2023-03-14T09:49:58;1038.70;;;962.75;;
68995;SDS011;56056;48.990;12.146;2023-03-14T09:52:28;1072.78;;;990.13;;
68995;SDS011;56056;48.990;12.146;2023-03-14T09:54:57;1110.32;;;999.90;;
68995;SDS011;56056;48.990;12.146;2023-03-14T09:57:25;1105.00;;;999.90;;
68995;SDS011;56056;48.990;12.146;2023-03-14T09:59:51;1099.63;;;999.90;;
68995;SDS011;56056;48.990;12.146;2023-03-14T10:02:19;1210.97;;;999.90;;
68995;SDS011;56056;48.990;12.146;2023-03-14T10:04:46;1140.90;;;999.90;;
68995;SDS011;56056;48.990;12.146;2023-03-14T10:07:13;1096.57;;;996.90;;
68995;SDS011;56056;48.990;12.146;2023-03-14T10:09:43;1163.22;;;999.90;;
68995;SDS011;56056;48.990;12.146;2023-03-14T10:12:09;1148.82;;;999.90;;
68995;SDS011;56056;48.990;12.146;2023-03-14T10:14:36;1269.07;;;999.90;;
68995;SDS011;56056;48.990;12.146;2023-03-14T10:17:07;1297.82;;;999.90;;
68995;SDS011;56056;48.990;12.146;2023-03-14T10:19:34;1283.63;;;999.90;;
68995;SDS011;56056;48.990;12.146;2023-03-14T10:22:01;1286.07;;;999.90;;
68995;SDS011;56056;48.990;12.146;2023-03-14T10:24:28;1525.95;;;999.90;;
68995;SDS011;56056;48.990;12.146;2023-03-14T10:26:57;1677.68;;;999.90;;
68995;SDS011;56056;48.990;12.146;2023-03-14T10:29:26;1971.45;;;999.90;;
68995;SDS011;56056;48.990;12.146;2023-03-14T10:31:52;1478.88;;;999.90;;
68995;SDS011;56056;48.990;12.146;2023-03-14T10:34:22;1541.18;;;999.90;;
68995;SDS011;56056;48.990;12.146;2023-03-14T10:36:51;1416.10;;;999.90;;
68995;SDS011;56056;48.990;12.146;2023-03-14T10:39:22;1198.97;;;999.90;;
68995;SDS011;56056;48.990;12.146;2023-03-14T10:41:52;1190.00;;;999.90;;
68995;SDS011;56056;48.990;12.146;2023-03-14T10:44:20;1429.68;;;999.90;;
68995;SDS011;56056;48.990;12.146;2023-03-14T10:46:54;1453.40;;;999.90;;
68995;SDS011;56056;48.990;12.146;2023-03-14T10:49:25;1643.40;;;999.90;;
68995;SDS011;56056;48.990;12.146;2023-03-14T10:51:53;1915.15;;;999.90;;
68995;SDS011;56056;48.990;12.146;2023-03-14T10:54:19;1383.97;;;965.00;;
68995;SDS011;56056;48.990;12.146;2023-03-14T10:56:46;1267.97;;;999.90;;
68995;SDS011;56056;48.990;12.146;2023-03-14T10:59:22;1680.07;;;999.90;;
68995;SDS011;56056;48.990;12.146;2023-03-14T11:01:50;1570.60;;;999.90;;
68995;SDS011;56056;48.990;12.146;2023-03-14T11:04:22;1337.32;;;999.90;;
68995;SDS011;56056;48.990;12.146;2023-03-14T11:07:04;1722.63;;;999.90;;
68995;SDS011;56056;48.990;12.146;2023-03-14T11:09:36;1893.05;;;999.90;;
68995;SDS011;56056;48.990;12.146;2023-03-14T11:12:10;1999.90;;;999.90;;
68995;SDS011;56056;48.990;12.146;2023-03-14T11:14:47;1775.53;;;999.90;;
68995;SDS011;56056;48.990;12.146;2023-03-14T11:17:16;1677.57;;;999.90;;
68995;SDS011;56056;48.990;12.146;2023-03-14T11:19:49;1776.80;;;999.90;;
68995;SDS011;56056;48.990;12.146;2023-03-14T11:22:23;1613.93;;;999.90;;
68995;SDS011;56056;48.990;12.146;2023-03-14T11:25:01;1456.82;;;999.90;;
68995;SDS011;56056;48.990;12.146;2023-03-14T11:27:34;1150.70;;;999.90;;
68995;SDS011;56056;48.990;12.146;2023-03-14T11:30:13;1210.38;;;999.90;;
68995;SDS011;56056;48.990;12.146;2023-03-14T11:32:43;1213.15;;;999.90;;
68995;SDS011;56056;48.990;12.146;2023-03-14T11:35:14;1234.28;;;999.90;;
68995;SDS011;56056;48.990;12.146;2023-03-14T11:37:44;1197.70;;;999.90;;
68995;SDS011;56056;48.990;12.146;2023-03-14T11:40:13;1222.45;;;999.90;;
68995;SDS011;56056;48.990;12.146;2023-03-14T11:42:39;1112.90;;;999.90;;
68995;SDS011;56056;48.990;12.146;2023-03-14T11:45:12;1186.55;;;999.90;;
68995;SDS011;56056;48.990;12.146;2023-03-14T11:47:41;1175.65;;;999.90;;
68995;SDS011;56056;48.990;12.146;2023-03-14T11:50:12;1151.93;;;999.90;;
68995;SDS011;56056;48.990;12.146;2023-03-14T11:52:43;1189.47;;;999.90;;
68995;SDS011;56056;48.990;12.146;2023-03-14T11:55:12;1144.55;;;999.90;;
68995;SDS011;56056;48.990;12.146;2023-03-14T11:57:44;1149.03;;;999.90;;
68995;SDS011;56056;48.990;12.146;2023-03-14T12:00:15;1141.75;;;999.90;;
68995;SDS011;56056;48.990;12.146;2023-03-14T12:02:44;1217.55;;;999.90;;
68995;SDS011;56056;48.990;12.146;2023-03-14T12:05:22;1287.15;;;999.90;;
68995;SDS011;56056;48.990;12.146;2023-03-14T12:08:03;1274.38;;;999.90;;
68995;SDS011;56056;48.990;12.146;2023-03-14T12:11:01;1878.65;;;999.90;;
68995;SDS011;56056;48.990;12.146;2023-03-14T12:13:29;1591.00;;;999.90;;
68995;SDS011;56056;48.990;12.146;2023-03-14T12:16:00;1274.28;;;999.90;;
68995;SDS011;56056;48.990;12.146;2023-03-14T12:18:30;1435.63;;;999.90;;
68995;SDS011;56056;48.990;12.146;2023-03-14T12:20:57;1379.07;;;999.90;;
68995;SDS011;56056;48.990;12.146;2023-03-14T12:23:24;1478.85;;;999.90;;
68995;SDS011;56056;48.990;12.146;2023-03-14T12:26:06;1653.38;;;999.90;;
68995;SDS011;56056;48.990;12.146;2023-03-14T12:28:33;1467.40;;;999.90;;
68995;SDS011;56056;48.990;12.146;2023-03-14T12:31:07;1722.43;;;999.90;;
68995;SDS011;56056;48.990;12.146;2023-03-14T12:34:04;1999.90;;;999.90;;
68995;SDS011;56056;48.990;12.146;2023-03-14T12:36:57;1999.90;;;999.90;;
68995;SDS011;56056;48.990;12.146;2023-03-14T12:39:30;1741.75;;;999.90;;
68995;SDS011;56056;48.990;12.146;2023-03-14T12:42:02;1849.10;;;999.90;;
68995;SDS011;56056;48.990;12.146;2023-03-14T12:44:39;1803.72;;;999.90;;
68995;SDS011;56056;48.990;12.146;2023-03-14T12:50:12;1600.18;;;999.90;;
68995;SDS011;56056;48.990;12.146;2023-03-14T12:52:41;1558.07;;;999.90;;
68995;SDS011;56056;48.990;12.146;2023-03-14T12:55:13;1349.50;;;999.90;;
68995;SDS011;56056;48.990;12.146;2023-03-14T12:57:43;1285.57;;;999.90;;
68995;SDS011;56056;48.990;12.146;2023-03-14T13:00:17;1390.03;;;999.90;;
68995;SDS011;56056;48.990;12.146;2023-03-14T13:02:44;1295.57;;;999.90;;
68995;SDS011;56056;48.990;12.146;2023-03-14T13:05:12;1372.50;;;999.90;;
68995;SDS011;56056;48.990;12.146;2023-03-14T13:10:28;1261.43;;;999.90;;
68995;SDS011;56056;48.990;12.146;2023-03-14T13:12:56;1145.30;;;999.90;;
68995;SDS011;56056;48.990;12.146;2023-03-14T13:15:23;1212.80;;;999.90;;
68995;SDS011;56056;48.990;12.146;2023-03-14T13:17:53;1173.55;;;999.90;;
68995;SDS011;56056;48.990;12.146;2023-03-14T13:20:24;1144.55;;;999.90;;
68995;SDS011;56056;48.990;12.146;2023-03-14T13:22:53;1227.45;;;999.90;;
68995;SDS011;56056;48.990;12.146;2023-03-14T13:25:19;1051.15;;;954.83;;
68995;SDS011;56056;48.990;12.146;2023-03-14T13:27:47;1059.88;;;973.30;;
68995;SDS011;56056;48.990;12.146;2023-03-14T13:30:17;1100.10;;;998.83;;
68995;SDS011;56056;48.990;12.146;2023-03-14T13:32:46;1065.43;;;983.63;;
68995;SDS011;56056;48.990;12.146;2023-03-14T13:35:19;1097.85;;;999.90;;
68995;SDS011;56056;48.990;12.146;2023-03-14T13:37:48;1094.05;;;997.22;;
68995;SDS011;56056;48.990;12.146;2023-03-14T13:40:23;1039.45;;;953.53;;
68995;SDS011;56056;48.990;12.146;2023-03-14T13:42:59;1162.57;;;999.90;;
68995;SDS011;56056;48.990;12.146;2023-03-14T13:45:27;1264.38;;;999.90;;
68995;SDS011;56056;48.990;12.146;2023-03-14T13:47:52;1353.60;;;999.90;;
68995;SDS011;56056;48.990;12.146;2023-03-14T13:50:18;1151.95;;;999.90;;